Time;durP1;ratioP1;P1;durP2;ratioP2;P2;SDS_P1;SDS_P2;PMS_P1;PMS_P2;Temp;Humidity;BMP_temperature;BMP_pressure;BME280_temperature;BME280_humidity;BME280_pressure;Samples;Min_cycle;Max_cycle;Signal;HPM_P1;HPM_P2
2023/01/11 11:41:49;;;;;;;22.83;4.68;;;10.50;99.90;;;;;;6121809;23;20379;-84
2023/01/11 11:44:26;;;;;;;16.63;2.75;;;10.50;99.90;;;;;;6070563;23;20060;-83
2023/01/11 11:47:18;;;;;;;17.02;2.95;;;10.50;99.90;;;;;;6089999;23;20022;-82
2023/01/11 11:49:43;;;;;;;16.80;3.53;;;10.60;99.90;;;;;;6063597;23;20040;-82
2023/01/11 11:52:16;;;;;;;16.90;3.72;;;10.80;99.90;;;;;;6068072;23;20100;-81
2023/01/11 11:54:51;;;;;;;15.32;2.30;;;10.80;99.90;;;;;;6066751;23;20014;-81
2023/01/11 11:57:29;;;;;;;15.15;2.72;;;10.80;99.90;;;;;;6092337;23;20018;-84
2023/01/11 12:00:08;;;;;;;17.88;3.35;;;10.60;99.90;;;;;;6093685;23;20017;-84
2023/01/11 12:02:39;;;;;;;11.18;2.53;;;10.60;99.90;;;;;;6091033;23;20070;-84
2023/01/11 12:05:08;;;;;;;16.70;2.83;;;10.60;99.90;;;;;;6065249;23;20014;-81
2023/01/11 12:07:36;;;;;;;18.77;3.10;;;10.60;99.90;;;;;;6068282;23;20572;-83
2023/01/11 12:10:09;;;;;;;16.73;3.40;;;10.70;99.90;;;;;;6093721;23;20010;-83
2023/01/11 12:12:55;;;;;;;15.40;2.17;;;10.70;99.90;;;;;;6069453;23;20024;-84
2023/01/11 12:15:27;;;;;;;15.88;4.03;;;10.80;99.90;;;;;;6095227;23;20025;-84
2023/01/11 12:17:54;;;;;;;21.25;4.07;;;10.80;99.90;;;;;;6095785;23;20064;-84
2023/01/11 12:20:23;;;;;;;20.20;3.50;;;10.70;99.90;;;;;;6071540;23;20089;-84
2023/01/11 12:23:06;;;;;;;20.13;3.60;;;10.60;99.90;;;;;;6072205;23;20089;-84
2023/01/11 12:25:40;;;;;;;15.02;3.17;;;10.60;99.90;;;;;;6072670;23;20045;-83
2023/01/11 12:28:17;;;;;;;15.07;3.30;;;10.50;99.90;;;;;;6070432;23;20021;-82
2023/01/11 12:30:51;;;;;;;19.80;3.13;;;10.40;99.90;;;;;;6095639;23;20022;-83
2023/01/11 12:33:43;;;;;;;11.82;3.28;;;10.40;99.90;;;;;;6095218;23;20020;-83
2023/01/11 12:36:11;;;;;;;20.08;2.47;;;10.40;99.90;;;;;;6070169;23;20073;-82
2023/01/11 12:38:45;;;;;;;20.52;3.50;;;10.30;99.90;;;;;;6093800;23;20018;-83
2023/01/11 12:41:42;;;;;;;15.98;2.72;;;10.30;99.90;;;;;;6072918;23;20379;-84
2023/01/11 12:44:39;;;;;;;14.30;2.47;;;10.30;99.90;;;;;;6071983;23;20068;-81
2023/01/11 12:47:22;;;;;;;15.63;3.38;;;10.20;99.90;;;;;;6069604;23;20021;-83
2023/01/11 12:50:06;;;;;;;20.52;2.95;;;10.20;99.90;;;;;;6071052;23;20017;-83
2023/01/11 12:52:58;;;;;;;16.10;3.33;;;10.30;99.90;;;;;;6094577;23;20014;-84
2023/01/11 12:55:51;;;;;;;18.15;2.70;;;10.10;99.90;;;;;;6070287;23;20145;-84
2023/01/11 12:58:39;;;;;;;30.45;5.10;;;10.30;99.90;;;;;;6096162;23;20544;-81
2023/01/11 13:01:08;;;;;;;19.80;4.05;;;10.30;99.90;;;;;;6074217;23;20014;-82
2023/01/11 13:03:42;;;;;;;23.52;3.58;;;10.20;99.90;;;;;;6070584;23;20025;-83
2023/01/11 13:06:29;;;;;;;24.00;4.10;;;10.10;99.90;;;;;;6096974;23;20014;-83
2023/01/11 13:09:12;;;;;;;22.02;3.38;;;10.10;99.90;;;;;;6073103;23;20066;-84
2023/01/11 13:12:09;;;;;;;24.67;3.65;;;10.00;99.90;;;;;;6093937;23;20014;-83
2023/01/11 13:14:38;;;;;;;24.45;3.60;;;10.00;99.90;;;;;;6094903;23;20022;-84
2023/01/11 13:17:25;;;;;;;21.05;3.65;;;9.90;99.90;;;;;;6094410;23;20037;-84
2023/01/11 13:19:50;;;;;;;19.95;3.10;;;10.00;99.90;;;;;;6095322;23;20018;-81
2023/01/11 13:22:19;;;;;;;28.17;4.82;;;9.90;99.90;;;;;;6071913;23;20017;-82
2023/01/11 13:24:49;;;;;;;33.10;5.05;;;9.90;99.90;;;;;;6094281;23;20014;-84
2023/01/11 13:27:21;;;;;;;22.17;3.70;;;9.90;99.90;;;;;;6094320;23;20018;-83
2023/01/11 13:29:51;;;;;;;18.65;4.05;;;9.90;99.90;;;;;;6067500;23;20021;-82
2023/01/11 13:32:23;;;;;;;23.17;3.97;;;9.80;99.90;;;;;;6070846;23;20446;-86
2023/01/11 13:34:56;;;;;;;26.30;4.18;;;9.90;99.90;;;;;;6068179;23;20412;-83
2023/01/11 13:37:52;;;;;;;21.40;4.10;;;9.80;99.90;;;;;;6070961;23;20020;-84
2023/01/11 13:40:49;;;;;;;20.05;3.38;;;9.80;99.90;;;;;;6070437;23;20073;-84
2023/01/11 13:43:26;;;;;;;22.67;4.22;;;9.80;99.90;;;;;;6062485;23;20018;-85
2023/01/11 13:46:02;;;;;;;24.08;3.63;;;9.80;99.90;;;;;;6092691;23;20021;-83
2023/01/11 13:48:30;;;;;;;;;;;9.70;99.90;;;;;;6070547;23;20006;-81
2023/01/11 13:51:14;;;;;;;20.58;4.35;;;9.70;99.90;;;;;;6096363;23;19913;-83
2023/01/11 13:54:15;;;;;;;20.23;4.45;;;9.70;99.90;;;;;;6072521;23;20861;-82
2023/01/11 13:56:43;;;;;;;26.10;3.97;;;9.80;99.90;;;;;;6045049;23;20030;-83
2023/01/11 13:59:38;;;;;;;20.48;3.40;;;9.70;99.90;;;;;;6068521;23;20029;-82
2023/01/11 14:02:17;;;;;;;20.65;3.90;;;9.70;99.90;;;;;;6065147;23;20017;-82
2023/01/11 14:04:57;;;;;;;24.80;3.70;;;9.60;99.90;;;;;;6094757;23;20020;-83
2023/01/11 14:07:35;;;;;;;19.17;3.83;;;9.60;99.90;;;;;;6061694;23;20042;-83
2023/01/11 14:10:20;;;;;;;21.73;3.25;;;9.50;99.90;;;;;;6089425;23;20032;-83
2023/01/11 14:12:46;;;;;;;17.98;3.22;;;9.60;99.90;;;;;;6088530;23;20017;-82
2023/01/11 14:15:25;;;;;;;20.45;3.42;;;9.50;99.90;;;;;;6091438;23;20081;-84
2023/01/11 14:18:16;;;;;;;22.40;4.30;;;9.50;99.90;;;;;;6069216;23;20025;-84
2023/01/11 14:21:13;;;;;;;21.80;4.65;;;9.50;99.90;;;;;;6071369;23;20018;-81
2023/01/11 14:23:53;;;;;;;17.42;3.00;;;9.50;99.90;;;;;;6071221;23;20025;-83
2023/01/11 14:26:37;;;;;;;19.08;3.40;;;9.50;99.90;;;;;;6095107;23;20028;-82
2023/01/11 14:29:11;;;;;;;20.77;2.95;;;9.40;99.90;;;;;;6069713;23;20014;-81
2023/01/11 14:31:54;;;;;;;19.85;3.38;;;9.50;99.90;;;;;;6095498;23;20020;-82
2023/01/11 14:35:06;;;;;;;24.58;4.40;;;9.50;99.90;;;;;;6070101;23;20037;-83
2023/01/11 14:37:50;;;;;;;15.38;2.83;;;9.40;99.90;;;;;;6072387;23;20097;-82
2023/01/11 14:40:44;;;;;;;31.05;4.72;;;9.40;99.90;;;;;;6069442;23;20045;-83
2023/01/11 14:43:44;;;;;;;21.83;4.13;;;9.40;99.90;;;;;;6071453;23;20518;-84
2023/01/11 14:46:44;;;;;;;17.02;3.75;;;9.30;99.90;;;;;;6070833;23;20443;-84
2023/01/11 14:49:32;;;;;;;17.98;3.13;;;9.20;99.90;;;;;;6067411;23;20481;-85
2023/01/11 14:52:07;;;;;;;21.00;3.17;;;9.20;99.90;;;;;;6067958;23;20014;-84
2023/01/11 14:55:10;;;;;;;19.02;3.58;;;9.20;99.90;;;;;;6095860;23;20010;-82
2023/01/11 14:58:24;;;;;;;20.92;4.40;;;9.10;99.90;;;;;;6118449;23;20045;-82
2023/01/11 15:00:53;;;;;;;18.50;3.28;;;9.10;99.90;;;;;;6070898;23;20080;-80
2023/01/11 15:03:19;;;;;;;19.48;4.30;;;9.10;99.90;;;;;;6071267;23;20022;-82
2023/01/11 15:05:59;;;;;;;24.88;3.33;;;9.10;99.90;;;;;;6084725;23;20018;-82
2023/01/11 15:08:27;;;;;;;21.95;4.45;;;9.10;99.90;;;;;;6081708;23;20028;-83
2023/01/11 15:10:56;;;;;;;22.25;3.47;;;9.10;99.90;;;;;;6083907;23;20021;-82
2023/01/11 15:13:29;;;;;;;12.73;2.70;;;9.00;99.90;;;;;;6056863;23;20028;-81
2023/01/11 15:19:09;;;;;;;19.02;4.07;;;9.00;99.90;;;;;;6082543;23;20033;-82
2023/01/11 15:21:40;;;;;;;22.27;3.75;;;9.00;99.90;;;;;;6085113;23;20013;-83
2023/01/11 15:24:19;;;;;;;23.10;4.93;;;9.00;99.90;;;;;;6061509;23;20018;-83
2023/01/11 15:26:48;;;;;;;19.33;4.13;;;8.90;99.90;;;;;;6062472;23;20553;-84
2023/01/11 15:29:41;;;;;;;26.73;3.85;;;9.00;99.90;;;;;;6082284;23;20203;-80
2023/01/11 15:32:17;;;;;;;19.88;2.67;;;9.00;99.90;;;;;;6088902;23;20903;-78
2023/01/11 15:34:46;;;;;;;19.45;3.55;;;8.90;99.90;;;;;;6063728;23;20052;-82
2023/01/11 15:37:22;;;;;;;21.50;3.88;;;8.90;99.90;;;;;;6060234;23;20042;-83
2023/01/11 15:40:18;;;;;;;21.05;3.13;;;8.90;99.90;;;;;;6085324;23;20041;-83
2023/01/11 15:43:16;;;;;;;21.77;3.95;;;8.90;99.90;;;;;;6059579;23;20022;-84
2023/01/11 15:48:58;;;;;;;23.23;4.20;;;8.90;99.90;;;;;;6077506;23;20022;-82
2023/01/11 15:51:45;;;;;;;21.25;3.78;;;8.90;99.90;;;;;;6049500;23;20014;-82
2023/01/11 15:54:12;;;;;;;26.50;3.70;;;8.90;99.90;;;;;;6057164;23;20014;-81
2023/01/11 15:56:59;;;;;;;24.77;3.65;;;8.90;99.90;;;;;;6053944;23;20080;-82
2023/01/11 15:59:43;;;;;;;24.88;4.40;;;8.80;99.90;;;;;;6078909;23;20913;-82
2023/01/11 16:02:12;;;;;;;15.25;3.28;;;8.90;99.90;;;;;;6081859;23;20045;-80
2023/01/11 16:05:25;;;;;;;13.32;2.50;;;8.80;99.90;;;;;;6078705;23;20020;-81
2023/01/11 16:08:26;;;;;;;21.60;3.60;;;8.80;99.90;;;;;;6081865;23;20018;-82
2023/01/11 16:11:24;;;;;;;20.35;3.80;;;8.80;99.90;;;;;;6054682;23;20410;-81
2023/01/11 16:14:31;;;;;;;18.65;2.95;;;8.80;99.90;;;;;;6083686;23;20026;-81
2023/01/11 16:16:57;;;;;;;23.30;4.70;;;8.70;99.90;;;;;;6062039;23;20107;-81
2023/01/11 16:19:27;;;;;;;15.25;4.03;;;8.70;99.90;;;;;;6057867;23;20018;-80
2023/01/11 16:21:55;;;;;;;17.52;3.45;;;8.70;99.90;;;;;;6061964;23;20089;-81
2023/01/11 16:24:28;;;;;;;17.35;3.28;;;8.70;99.90;;;;;;6085389;23;20128;-83
2023/01/11 16:27:00;;;;;;;17.33;2.97;;;8.60;99.90;;;;;;6089592;23;20029;-82
2023/01/11 16:29:30;;;;;;;21.13;3.70;;;8.60;99.90;;;;;;6060381;23;20013;-85
2023/01/11 16:32:01;;;;;;;19.63;2.63;;;8.60;99.90;;;;;;6064074;23;20121;-82
2023/01/11 16:34:37;;;;;;;18.38;3.60;;;8.60;99.90;;;;;;6085536;23;20757;-79
2023/01/11 16:37:28;;;;;;;14.18;2.38;;;8.60;99.90;;;;;;6084570;23;20745;-84
2023/01/11 16:40:01;;;;;;;14.70;2.33;;;8.60;99.90;;;;;;6084217;23;20022;-84
2023/01/11 16:42:31;;;;;;;17.45;2.95;;;8.50;99.90;;;;;;6065473;23;20018;-83
2023/01/11 16:45:11;;;;;;;14.77;3.00;;;8.50;99.90;;;;;;6070205;23;20033;-84
2023/01/11 16:47:37;;;;;;;16.52;2.53;;;8.50;99.90;;;;;;6094926;23;20053;-82
2023/01/11 16:50:20;;;;;;;19.95;3.10;;;8.50;99.90;;;;;;6095166;23;20018;-81
2023/01/11 16:52:51;;;;;;;16.20;2.80;;;8.40;99.90;;;;;;6073352;23;20017;-82
2023/01/11 16:55:35;;;;;;;22.00;3.30;;;8.50;99.90;;;;;;6068899;23;20222;-82
2023/01/11 16:58:05;;;;;;;15.90;2.90;;;8.40;99.90;;;;;;6094477;23;20804;-84
2023/01/11 17:00:37;;;;;;;17.58;4.40;;;8.50;99.90;;;;;;6069513;23;20022;-84
2023/01/11 17:03:24;;;;;;;22.15;3.70;;;8.40;99.90;;;;;;6070406;23;20029;-84
2023/01/11 17:05:59;;;;;;;17.23;3.22;;;8.40;99.90;;;;;;6090406;23;20227;-81
2023/01/11 17:08:45;;;;;;;20.27;3.30;;;8.30;99.90;;;;;;6087503;23;20022;-83
2023/01/11 17:11:23;;;;;;;17.75;3.10;;;8.20;99.90;;;;;;6091139;23;20049;-83
2023/01/11 17:14:27;;;;;;;16.70;3.47;;;8.20;99.90;;;;;;6091472;23;20128;-83
2023/01/11 17:16:59;;;;;;;18.67;4.38;;;8.20;99.90;;;;;;6069290;23;20014;-82
2023/01/11 17:19:31;;;;;;;17.83;3.25;;;8.10;99.90;;;;;;6069564;23;20085;-83
2023/01/11 17:22:28;;;;;;;22.25;3.15;;;8.20;99.90;;;;;;6068294;23;20067;-82
2023/01/11 17:25:01;;;;;;;23.67;3.60;;;8.10;99.90;;;;;;6085204;23;20010;-85
2023/01/11 17:27:32;;;;;;;14.02;3.17;;;8.10;99.90;;;;;;6071950;23;20100;-83
2023/01/11 17:29:59;;;;;;;18.00;2.85;;;8.10;99.90;;;;;;6071190;23;20100;-84
2023/01/11 17:32:39;;;;;;;18.60;3.53;;;8.10;99.90;;;;;;6071142;23;20022;-83
2023/01/11 17:35:17;;;;;;;20.05;3.40;;;8.10;99.90;;;;;;6071551;23;20069;-83
2023/01/11 17:37:58;;;;;;;21.60;3.63;;;8.00;99.90;;;;;;6071167;23;20018;-84
2023/01/11 17:40:31;;;;;;;24.25;3.78;;;8.30;99.90;;;;;;6069672;23;20014;-84
2023/01/11 17:45:56;;;;;;;17.63;3.45;;;8.10;99.90;;;;;;6093007;23;20029;-85
2023/01/11 17:48:24;;;;;;;22.02;3.80;;;8.30;99.90;;;;;;6068603;23;20014;-85
2023/01/11 17:50:56;;;;;;;21.70;4.32;;;8.20;99.90;;;;;;6066685;23;20543;-84
2023/01/11 17:53:27;;;;;;;24.50;4.28;;;8.20;99.90;;;;;;6067538;23;20060;-86
2023/01/11 17:55:58;;;;;;;25.63;4.75;;;8.30;99.90;;;;;;6106999;23;20025;-83
2023/01/11 17:58:29;;;;;;;28.08;4.22;;;8.30;99.90;;;;;;6121454;23;20048;-84
2023/01/11 18:01:06;;;;;;;22.95;3.17;;;8.30;99.90;;;;;;6123026;23;20041;-86
2023/01/11 18:03:51;;;;;;;21.98;3.63;;;8.30;99.90;;;;;;6099216;23;20018;-84
2023/01/11 18:06:22;;;;;;;21.30;3.53;;;8.40;99.90;;;;;;6098591;23;20346;-85
2023/01/11 18:08:51;;;;;;;21.90;3.60;;;8.40;99.90;;;;;;6100473;23;20013;-81
2023/01/11 18:11:22;;;;;;;28.08;3.58;;;8.30;99.90;;;;;;6123008;23;20411;-85
2023/01/11 18:13:51;;;;;;;29.02;5.07;;;8.30;99.90;;;;;;6122120;23;20053;-83
2023/01/11 18:16:26;;;;;;;24.85;5.00;;;8.30;99.90;;;;;;6120755;23;20009;-86
2023/01/11 18:18:53;;;;;;;17.55;2.97;;;8.40;99.90;;;;;;6099057;23;20028;-84
2023/01/11 18:21:48;;;;;;;22.27;3.17;;;8.40;99.90;;;;;;6100156;23;20072;-85
2023/01/11 18:28:48;;;;;;;23.58;3.80;;;8.60;99.90;;;;;;6151379;23;20084;-87
2023/01/11 18:35:42;;;;;;;18.52;2.75;;;8.50;99.90;;;;;;6148354;23;20084;-85
2023/01/11 18:38:17;;;;;;;15.63;3.75;;;8.50;99.90;;;;;;6122367;23;20021;-85
2023/01/11 18:40:44;;;;;;;17.75;3.90;;;8.50;99.90;;;;;;6099934;23;20014;-82
2023/01/11 18:43:22;;;;;;;16.15;3.03;;;8.50;99.90;;;;;;6122426;23;20398;-86
2023/01/11 18:45:48;;;;;;;26.15;3.58;;;8.50;99.90;;;;;;6099432;23;20017;-84
2023/01/11 18:48:26;;;;;;;17.30;3.03;;;8.50;99.90;;;;;;6126776;23;20032;-85
2023/01/11 18:54:37;;;;;;;22.50;3.88;;;8.50;99.90;;;;;;6077652;23;20022;-88
2023/01/11 18:57:34;;;;;;;17.25;3.00;;;9.10;99.90;;;;;;6101946;23;20053;-87
2023/01/11 19:00:00;;;;;;;20.00;2.80;;;8.60;99.90;;;;;;6100715;23;20375;-86
2023/01/11 19:02:28;;;;;;;16.42;3.83;;;8.60;99.90;;;;;;6153960;23;20072;-85
2023/01/11 19:04:55;;;;;;;18.77;4.47;;;8.50;99.90;;;;;;6126592;23;20386;-83
2023/01/11 19:07:22;;;;;;;14.95;3.15;;;8.60;99.90;;;;;;6099811;23;20009;-84
2023/01/11 19:09:48;;;;;;;12.30;2.38;;;8.60;99.90;;;;;;6124533;23;20454;-84
2023/01/11 19:12:14;;;;;;;26.90;3.28;;;8.60;99.90;;;;;;6124086;23;20135;-81
2023/01/11 19:14:40;;;;;;;14.68;2.92;;;8.60;99.90;;;;;;6122867;23;20028;-83
2023/01/11 19:17:12;;;;;;;22.40;3.20;;;8.60;99.90;;;;;;6099247;23;20755;-86
2023/01/11 19:19:38;;;;;;;12.90;2.30;;;8.70;99.90;;;;;;6096650;23;20358;-86
2023/01/11 19:22:05;;;;;;;14.07;2.63;;;8.60;99.90;;;;;;6126975;23;20017;-85
2023/01/11 19:24:31;;;;;;;23.92;5.68;;;8.60;99.90;;;;;;6100361;23;20020;-84
2023/01/11 19:26:57;;;;;;;18.33;3.10;;;8.60;99.90;;;;;;6126690;23;20076;-84
2023/01/11 19:29:31;;;;;;;19.52;3.35;;;8.70;99.90;;;;;;6122118;23;20693;-88
2023/01/11 19:32:34;;;;;;;14.25;3.72;;;8.90;99.90;;;;;;6078324;23;20482;-85
2023/01/11 19:35:48;;;;;;;16.60;2.88;;;8.60;99.90;;;;;;6127237;23;20013;-87
2023/01/11 19:42:57;;;;;;;26.45;3.55;;;8.50;99.90;;;;;;6151738;23;20100;-86
2023/01/11 19:45:23;;;;;;;14.98;2.58;;;8.40;99.90;;;;;;6101137;23;20092;-85
2023/01/11 19:47:56;;;;;;;17.45;3.17;;;8.60;99.90;;;;;;6103342;23;20051;-87
2023/01/11 19:50:22;;;;;;;19.55;2.88;;;8.40;99.90;;;;;;6103051;23;20453;-85
2023/01/11 19:52:51;;;;;;;16.35;3.17;;;8.40;99.90;;;;;;6100992;23;20349;-86
2023/01/11 19:55:17;;;;;;;14.27;2.97;;;8.40;99.90;;;;;;6100016;23;20018;-86
2023/01/11 19:57:43;;;;;;;22.13;3.38;;;8.30;99.90;;;;;;6124352;23;20031;-87
2023/01/11 20:00:34;;;;;;;9.23;1.88;;;8.30;99.90;;;;;;6100103;23;20022;-86
2023/01/11 20:03:15;;;;;;;12.40;2.30;;;8.30;99.90;;;;;;6100544;23;20025;-86
2023/01/11 20:06:28;;;;;;;11.98;2.20;;;9.10;99.90;;;;;;6100514;23;20342;-86
2023/01/11 20:09:41;;;;;;;13.85;2.55;;;8.30;99.90;;;;;;6032392;23;20080;-86
2023/01/11 20:13:01;;;;;;;7.47;2.30;;;8.70;99.90;;;;;;5987479;23;20019;-86
2023/01/11 20:15:55;;;;;;;13.55;2.13;;;8.40;99.90;;;;;;5957240;24;20023;-87
2023/01/11 20:19:37;;;;;;;13.60;2.28;;;8.20;99.90;;;;;;5951589;24;20024;-86
2023/01/11 20:22:30;;;;;;;12.15;2.05;;;8.20;99.90;;;;;;5930466;24;20028;-87
2023/01/11 20:25:16;;;;;;;17.38;2.63;;;8.20;99.90;;;;;;5928101;24;20027;-86
2023/01/11 20:31:54;;;;;;;21.95;2.80;;;8.20;99.90;;;;;;5869054;24;20603;-86
2023/01/11 20:35:06;;;;;;;14.30;2.50;;;8.30;99.90;;;;;;5892669;24;20024;-86
2023/01/11 20:37:57;;;;;;;17.27;2.22;;;8.30;99.90;;;;;;5869746;24;20021;-86
2023/01/11 20:40:27;;;;;;;16.75;2.80;;;8.20;99.90;;;;;;5924831;24;20056;-86
2023/01/11 20:43:02;;;;;;;16.15;2.58;;;8.30;99.90;;;;;;5953070;24;20083;-86
2023/01/11 20:45:56;;;;;;;13.52;3.17;;;8.20;99.90;;;;;;6016411;23;20048;-86
2023/01/11 20:48:22;;;;;;;13.00;2.03;;;8.20;99.90;;;;;;6102315;23;20010;-85
2023/01/11 20:50:48;;;;;;;13.43;2.88;;;8.20;99.90;;;;;;6121546;23;20459;-84
2023/01/11 20:53:15;;;;;;;18.05;3.38;;;8.20;99.90;;;;;;6126017;23;20024;-86
2023/01/11 20:55:41;;;;;;;11.30;2.17;;;8.20;99.90;;;;;;6099602;23;20020;-85
2023/01/11 20:58:08;;;;;;;16.70;2.38;;;8.60;99.90;;;;;;6100017;23;20687;-85
2023/01/11 21:00:38;;;;;;;15.13;2.13;;;8.20;99.90;;;;;;6099332;23;20029;-85
2023/01/11 21:03:06;;;;;;;17.63;2.58;;;8.60;99.90;;;;;;6100801;23;20117;-86
2023/01/11 21:05:36;;;;;;;17.00;2.95;;;8.20;99.90;;;;;;6100232;23;20096;-86
2023/01/11 21:08:01;;;;;;;10.73;1.80;;;8.20;99.90;;;;;;6127289;23;20014;-85
2023/01/11 21:10:27;;;;;;;21.25;3.03;;;8.20;99.90;;;;;;6153375;23;20024;-85
2023/01/11 21:12:55;;;;;;;17.10;2.63;;;8.30;99.90;;;;;;6127285;23;20402;-85
2023/01/11 21:15:21;;;;;;;11.00;2.75;;;8.30;99.90;;;;;;6126192;23;20018;-86
2023/01/11 21:17:47;;;;;;;18.73;2.53;;;8.90;99.90;;;;;;6102867;23;20092;-86
2023/01/11 21:20:15;;;;;;;16.13;2.85;;;8.30;99.90;;;;;;6102826;23;20443;-86
2023/01/11 21:22:44;;;;;;;13.60;2.00;;;8.30;99.90;;;;;;6101559;23;20447;-86
2023/01/11 21:25:09;;;;;;;14.18;2.45;;;8.40;99.90;;;;;;6102387;23;20017;-86
2023/01/11 21:27:36;;;;;;;10.02;1.90;;;8.40;99.90;;;;;;6102044;23;20013;-85
2023/01/11 21:30:02;;;;;;;8.35;1.58;;;8.40;99.90;;;;;;6100373;23;20017;-85
2023/01/11 21:32:28;;;;;;;11.88;1.60;;;8.50;99.90;;;;;;6099827;23;20013;-84
2023/01/11 21:34:54;;;;;;;10.15;1.63;;;8.60;99.90;;;;;;6125815;23;20092;-82
2023/01/11 21:37:23;;;;;;;11.00;2.58;;;8.50;99.90;;;;;;6128717;23;20020;-83
2023/01/11 21:39:50;;;;;;;13.38;1.95;;;8.50;99.90;;;;;;6128501;23;20455;-82
2023/01/11 21:42:15;;;;;;;7.78;1.40;;;8.50;99.90;;;;;;6128855;23;20013;-82
2023/01/11 21:44:41;;;;;;;11.00;2.63;;;8.50;99.90;;;;;;6127177;23;20017;-83
2023/01/11 21:47:13;;;;;;;13.18;1.85;;;8.50;99.90;;;;;;6126328;23;20009;-83
2023/01/11 21:49:39;;;;;;;8.90;1.48;;;8.40;99.90;;;;;;6126173;23;20021;-83
2023/01/11 21:52:05;;;;;;;12.15;1.80;;;8.50;99.90;;;;;;6126663;23;20013;-84
2023/01/11 21:54:31;;;;;;;7.95;1.48;;;8.50;99.90;;;;;;6126741;23;20021;-84
2023/01/11 21:56:57;;;;;;;13.80;3.72;;;8.60;99.90;;;;;;6100516;23;20014;-83
2023/01/11 21:59:23;;;;;;;13.07;1.92;;;8.60;99.90;;;;;;6103756;23;20156;-82
2023/01/11 22:01:49;;;;;;;12.07;2.13;;;8.60;99.90;;;;;;6127701;23;20010;-83
2023/01/11 22:04:18;;;;;;;11.77;2.13;;;8.60;99.90;;;;;;6127286;23;20018;-83
2023/01/11 22:06:52;;;;;;;11.20;1.98;;;8.60;99.90;;;;;;6125454;23;20053;-82
2023/01/11 22:09:19;;;;;;;10.73;2.88;;;8.60;99.90;;;;;;6125915;23;20722;-82
2023/01/11 22:11:44;;;;;;;11.95;2.65;;;8.60;99.90;;;;;;6103157;23;20021;-84
2023/01/11 22:14:11;;;;;;;11.40;2.17;;;8.60;99.90;;;;;;6126445;23;20018;-85
2023/01/11 22:16:36;;;;;;;7.38;1.88;;;8.70;99.90;;;;;;6099317;23;20088;-82
2023/01/11 22:19:04;;;;;;;13.32;2.25;;;8.90;99.90;;;;;;6103449;23;20069;-82
2023/01/11 22:21:30;;;;;;;10.05;1.83;;;8.70;99.90;;;;;;6124746;23;20017;-81
2023/01/11 22:23:57;;;;;;;14.77;2.28;;;8.70;99.90;;;;;;6126978;23;20092;-84
2023/01/11 22:26:25;;;;;;;9.95;1.92;;;8.70;99.90;;;;;;6127323;23;20443;-83
2023/01/11 22:31:53;;;;;;;14.27;2.05;;;8.70;99.90;;;;;;6097362;23;20510;-82
2023/01/11 22:34:19;;;;;;;7.10;1.52;;;8.70;99.90;;;;;;6104465;23;20033;-82
2023/01/11 22:36:45;;;;;;;11.73;2.00;;;8.70;99.90;;;;;;6153575;23;20013;-82
2023/01/11 22:39:12;;;;;;;12.48;2.20;;;8.70;99.90;;;;;;6128361;23;20021;-81
2023/01/11 22:41:39;;;;;;;12.43;2.20;;;8.70;99.90;;;;;;6128054;23;20018;-82
2023/01/11 22:44:08;;;;;;;10.05;1.95;;;8.60;99.90;;;;;;6153672;23;20029;-83
2023/01/11 22:46:34;;;;;;;8.85;1.52;;;8.60;99.90;;;;;;6104096;23;20370;-84
2023/01/11 22:49:00;;;;;;;10.52;2.35;;;8.70;99.90;;;;;;6129637;23;20390;-82
2023/01/11 22:51:26;;;;;;;9.73;1.70;;;8.60;99.90;;;;;;6154257;23;20017;-82
2023/01/11 22:53:53;;;;;;;13.15;2.53;;;8.60;99.90;;;;;;6102819;23;20017;-81
2023/01/11 22:56:22;;;;;;;9.63;2.42;;;8.70;99.90;;;;;;6127278;23;20009;-84
2023/01/11 22:58:50;;;;;;;13.15;2.75;;;9.70;99.90;;;;;;6127805;23;20239;-81
2023/01/11 23:01:21;;;;;;;10.68;1.80;;;8.70;99.90;;;;;;6126111;23;20466;-83
2023/01/11 23:03:48;;;;;;;16.33;3.50;;;8.70;99.90;;;;;;6127709;23;20018;-82
2023/01/11 23:06:19;;;;;;;14.00;3.03;;;8.80;99.90;;;;;;6127785;23;20765;-82
2023/01/11 23:08:45;;;;;;;16.83;2.63;;;8.70;99.90;;;;;;6128110;23;20014;-84
2023/01/11 23:13:51;;;;;;;15.15;4.35;;;8.70;99.90;;;;;;6127351;23;20743;-83
2023/01/11 23:14:01;;;;;;;16.27;2.83;;;8.70;99.90;;;;;;6154107;23;20502;-82
2023/01/11 23:16:27;;;;;;;15.75;2.90;;;8.70;99.90;;;;;;6128443;23;20112;-85
2023/01/11 23:18:53;;;;;;;19.27;3.17;;;8.70;99.90;;;;;;6127620;23;20510;-83
2023/01/11 23:21:19;;;;;;;12.77;2.88;;;8.70;99.90;;;;;;6128078;23;20017;-84
2023/01/11 23:23:45;;;;;;;13.80;3.03;;;8.70;99.90;;;;;;6153592;23;20013;-81
2023/01/11 23:26:11;;;;;;;14.48;3.38;;;8.70;99.90;;;;;;6127031;23;20486;-82
2023/01/11 23:28:37;;;;;;;15.85;2.33;;;8.60;99.90;;;;;;6103412;23;20037;-82
2023/01/11 23:31:15;;;;;;;16.50;2.80;;;8.60;99.90;;;;;;6128773;23;20017;-84
2023/01/11 23:33:44;;;;;;;15.45;2.25;;;8.60;99.90;;;;;;6105742;23;20017;-81
2023/01/11 23:36:10;;;;;;;17.80;3.03;;;8.60;99.90;;;;;;6157233;23;20014;-82
2023/01/11 23:38:39;;;;;;;13.05;2.30;;;8.60;99.90;;;;;;6130542;23;20014;-82
2023/01/11 23:43:53;;;;;;;13.93;2.10;;;8.60;99.90;;;;;;6157194;23;20032;-81
2023/01/11 23:49:05;;;;;;;15.70;2.78;;;8.60;99.90;;;;;;6130985;23;20370;-81
2023/01/11 23:51:32;;;;;;;15.23;2.45;;;8.60;99.90;;;;;;6104460;23;20076;-83
2023/01/11 23:53:58;;;;;;;11.93;2.67;;;8.60;99.90;;;;;;6130251;23;20028;-83
2023/01/11 23:56:25;;;;;;;19.15;2.92;;;8.60;99.90;;;;;;6129299;23;20537;-82
2023/01/11 23:58:51;;;;;;;15.30;2.92;;;8.60;99.90;;;;;;6131303;23;20024;-84
